Time;durP1;ratioP1;P1;durP2;ratioP2;P2;SDS_P1;SDS_P2;PMS_P1;PMS_P2;Temp;Humidity;BMP_temperature;BMP_pressure;BME280_temperature;BME280_humidity;BME280_pressure;Samples;Min_cycle;Max_cycle;Signal;HPM_P1;HPM_P2
2022/01/02 00:01:12;;;;;;;9.07;5.28;;;12.20;79.60;;;;;;5039319;28;20548;-75
2022/01/02 00:03:40;;;;;;;7.85;5.75;;;12.20;79.60;;;;;;5055362;28;20164;-75
2022/01/02 00:06:07;;;;;;;10.02;5.63;;;12.20;79.70;;;;;;5036528;28;20116;-74
2022/01/02 00:08:41;;;;;;;7.97;5.40;;;12.20;79.70;;;;;;5054962;28;20044;-74
2022/01/02 00:11:10;;;;;;;9.93;5.68;;;12.20;79.80;;;;;;5055064;28;20048;-74
2022/01/02 00:13:45;;;;;;;12.43;6.28;;;12.20;79.90;;;;;;5036129;28;20091;-75
2022/01/02 00:16:14;;;;;;;7.95;5.25;;;12.10;79.90;;;;;;5057218;28;20059;-75
2022/01/02 00:18:48;;;;;;;10.75;5.30;;;12.10;79.90;;;;;;5055122;28;20404;-75
2022/01/02 00:21:16;;;;;;;8.32;5.45;;;12.10;80.00;;;;;;5037073;28;20045;-74
2022/01/02 00:24:01;;;;;;;9.82;5.65;;;12.10;80.00;;;;;;5054397;28;20143;-74
2022/01/02 00:26:35;;;;;;;10.35;5.55;;;12.10;80.10;;;;;;5037942;28;20082;-75
2022/01/02 00:29:07;;;;;;;11.02;6.22;;;12.10;80.10;;;;;;5036866;28;20076;-75
2022/01/02 00:31:34;;;;;;;10.80;6.85;;;12.10;80.10;;;;;;5054444;28;20041;-75
2022/01/02 00:34:01;;;;;;;10.98;6.22;;;12.10;80.10;;;;;;5054487;28;20049;-75
2022/01/02 00:36:27;;;;;;;9.38;6.00;;;12.10;80.20;;;;;;5055202;28;20115;-75
2022/01/02 00:38:53;;;;;;;9.52;5.68;;;12.10;80.20;;;;;;5054775;28;20412;-75
2022/01/02 00:41:27;;;;;;;11.77;7.00;;;12.10;80.20;;;;;;5037028;28;20133;-75
2022/01/02 00:44:07;;;;;;;9.73;7.00;;;12.10;80.30;;;;;;5054104;28;20040;-75
2022/01/02 00:46:38;;;;;;;9.82;5.80;;;12.10;80.30;;;;;;5037321;28;20052;-75
2022/01/02 00:49:05;;;;;;;9.32;6.15;;;12.00;80.30;;;;;;5054194;28;20484;-75
2022/01/02 00:51:46;;;;;;;10.50;6.35;;;12.00;80.30;;;;;;5054249;28;20111;-75
2022/01/02 00:54:16;;;;;;;11.40;6.50;;;12.00;80.30;;;;;;5042679;28;20116;-75
2022/01/02 00:56:45;;;;;;;9.63;6.03;;;12.00;80.40;;;;;;5055623;28;20123;-75
2022/01/02 00:59:27;;;;;;;9.20;6.55;;;12.00;80.40;;;;;;5054160;28;20092;-75
2022/01/02 01:02:03;;;;;;;10.05;6.55;;;12.00;80.90;;;;;;5035962;28;20091;-75
2022/01/02 01:04:33;;;;;;;10.32;6.32;;;12.00;80.60;;;;;;5062372;28;20075;-75
2022/01/02 01:07:05;;;;;;;10.45;6.50;;;12.00;81.00;;;;;;5053351;28;20172;-75
2022/01/02 01:09:32;;;;;;;11.27;7.47;;;12.00;80.70;;;;;;5025069;28;20505;-76
2022/01/02 01:12:00;;;;;;;13.23;6.75;;;12.00;80.70;;;;;;5053843;28;20041;-75
2022/01/02 01:14:28;;;;;;;11.50;7.07;;;12.00;80.70;;;;;;5053854;28;20049;-76
2022/01/02 01:16:54;;;;;;;10.35;7.15;;;12.00;80.70;;;;;;5056984;28;20048;-75
2022/01/02 01:19:20;;;;;;;12.85;7.13;;;12.00;80.70;;;;;;5055778;28;20040;-76
2022/01/02 01:21:46;;;;;;;11.88;6.50;;;12.00;80.70;;;;;;5054085;28;20029;-76
2022/01/02 01:24:12;;;;;;;10.45;7.18;;;12.00;80.70;;;;;;5035192;28;20045;-76
2022/01/02 01:26:39;;;;;;;11.18;7.28;;;12.00;80.80;;;;;;5035265;28;20043;-76
2022/01/02 01:29:05;;;;;;;11.90;7.45;;;12.00;80.80;;;;;;5054311;28;20381;-75
2022/01/02 01:31:31;;;;;;;11.07;6.57;;;12.00;80.80;;;;;;5053998;28;20128;-75
2022/01/02 01:33:56;;;;;;;17.13;7.32;;;11.90;80.80;;;;;;5053096;28;20087;-75
2022/01/02 01:36:22;;;;;;;12.63;6.65;;;12.00;80.90;;;;;;5036017;28;20049;-75
2022/01/02 01:38:48;;;;;;;11.80;6.88;;;11.90;80.80;;;;;;5052899;28;20396;-76
2022/01/02 01:41:27;;;;;;;14.65;7.00;;;11.90;80.80;;;;;;5050362;28;20076;-75
2022/01/02 01:44:06;;;;;;;11.82;7.25;;;11.90;80.90;;;;;;5042503;28;20052;-76
2022/01/02 01:46:33;;;;;;;11.73;6.97;;;11.90;80.90;;;;;;5035473;28;20532;-75
2022/01/02 01:48:59;;;;;;;11.18;6.47;;;11.90;81.00;;;;;;5034638;28;20124;-75
2022/01/02 01:51:25;;;;;;;10.65;6.82;;;11.90;81.00;;;;;;5053919;28;20044;-75
2022/01/02 01:53:51;;;;;;;10.13;7.20;;;11.90;81.00;;;;;;5035070;28;20438;-75
2022/01/02 01:56:17;;;;;;;13.70;7.50;;;11.90;81.00;;;;;;5052944;28;20041;-75
2022/01/02 01:58:43;;;;;;;12.43;6.95;;;11.90;81.10;;;;;;5052745;28;20049;-76
2022/01/02 02:01:09;;;;;;;10.10;6.65;;;11.90;81.10;;;;;;5060364;28;20131;-75
2022/01/02 02:03:35;;;;;;;12.98;7.40;;;11.90;81.10;;;;;;5059043;28;20087;-75
2022/01/02 02:06:01;;;;;;;12.15;6.75;;;11.90;81.10;;;;;;5059341;28;20131;-76
2022/01/02 02:08:27;;;;;;;12.52;6.45;;;11.90;81.10;;;;;;5052354;28;20041;-75
2022/01/02 02:10:58;;;;;;;12.10;6.50;;;11.90;81.10;;;;;;5052351;28;20049;-75
2022/01/02 02:13:25;;;;;;;10.70;5.97;;;11.90;81.10;;;;;;5060131;28;20052;-76
2022/01/02 02:15:51;;;;;;;12.43;6.78;;;11.90;81.10;;;;;;5035425;28;20089;-76
2022/01/02 02:18:18;;;;;;;14.07;7.13;;;11.90;81.10;;;;;;5053123;28;20477;-75
2022/01/02 02:20:44;;;;;;;11.98;6.85;;;11.90;81.10;;;;;;5053014;28;20029;-76
2022/01/02 02:23:13;;;;;;;12.52;6.55;;;11.90;81.10;;;;;;5054005;28;20080;-75
2022/01/02 02:25:40;;;;;;;15.35;7.32;;;11.90;81.20;;;;;;5022732;28;20037;-75
2022/01/02 02:28:08;;;;;;;12.35;6.50;;;11.90;81.20;;;;;;5053169;28;20080;-75
2022/01/02 02:30:35;;;;;;;13.30;7.18;;;11.90;81.30;;;;;;5062769;28;20087;-76
2022/01/02 02:33:02;;;;;;;11.27;6.88;;;11.90;81.30;;;;;;5063598;28;20097;-76
2022/01/02 02:35:31;;;;;;;11.43;6.55;;;11.90;81.30;;;;;;5060498;28;20045;-75
2022/01/02 02:37:57;;;;;;;12.20;7.22;;;11.90;81.40;;;;;;5045110;28;20045;-75
2022/01/02 02:40:25;;;;;;;13.77;6.70;;;11.90;81.40;;;;;;5046233;28;20041;-75
2022/01/02 02:43:09;;;;;;;13.77;6.50;;;11.90;81.50;;;;;;5057723;28;20120;-76
2022/01/02 02:51:21;;;;;;;15.18;6.90;;;11.90;81.60;;;;;;5045796;28;20500;-76
2022/01/02 02:53:48;;;;;;;13.43;7.72;;;12.00;81.70;;;;;;5036969;28;20127;-76
2022/01/02 02:56:27;;;;;;;14.23;7.40;;;11.90;81.70;;;;;;5038598;28;20090;-75
2022/01/02 02:58:56;;;;;;;12.02;7.10;;;11.90;81.80;;;;;;5055406;28;20063;-76
2022/01/02 03:01:24;;;;;;;14.68;7.05;;;11.90;81.80;;;;;;5056748;28;20408;-75
2022/01/02 03:03:50;;;;;;;13.95;6.82;;;11.90;81.90;;;;;;5056072;28;20049;-76
2022/01/02 03:06:17;;;;;;;12.85;6.82;;;12.00;82.00;;;;;;5038555;28;20416;-76
2022/01/02 03:08:45;;;;;;;14.27;8.10;;;11.90;81.90;;;;;;5056254;28;20049;-76
2022/01/02 03:11:16;;;;;;;13.38;6.50;;;12.00;82.00;;;;;;5038066;28;20036;-76
2022/01/02 03:13:43;;;;;;;16.65;7.70;;;12.00;82.00;;;;;;5059524;28;20396;-76
2022/01/02 03:16:09;;;;;;;12.85;7.20;;;12.00;82.00;;;;;;5055879;28;20052;-76
2022/01/02 03:18:35;;;;;;;14.05;6.85;;;12.00;82.00;;;;;;5056151;28;20583;-76
2022/01/02 03:21:01;;;;;;;13.65;7.10;;;12.00;82.00;;;;;;5055174;28;20076;-76
2022/01/02 03:23:26;;;;;;;13.60;5.97;;;12.00;82.00;;;;;;5057138;28;20040;-75
2022/01/02 03:25:52;;;;;;;14.68;6.43;;;12.00;82.10;;;;;;5038239;28;20060;-76
2022/01/02 03:28:18;;;;;;;13.40;6.10;;;12.00;82.10;;;;;;5038048;28;20531;-76
2022/01/02 03:30:43;;;;;;;12.63;6.43;;;12.00;82.10;;;;;;5037549;28;20099;-76
2022/01/02 03:33:09;;;;;;;14.68;6.78;;;12.00;82.10;;;;;;5055981;28;20488;-75
2022/01/02 03:35:35;;;;;;;12.93;6.53;;;12.00;82.10;;;;;;5056985;28;20480;-76
2022/01/02 03:38:01;;;;;;;11.40;6.35;;;12.00;82.50;;;;;;5055898;28;20114;-76
2022/01/02 03:40:28;;;;;;;13.20;6.10;;;12.00;82.10;;;;;;5055060;28;20041;-76
2022/01/02 03:42:53;;;;;;;14.35;6.28;;;12.00;82.10;;;;;;5037571;28;20476;-76
2022/01/02 03:45:19;;;;;;;13.18;6.75;;;12.00;82.50;;;;;;5055355;28;20098;-76
2022/01/02 03:47:45;;;;;;;10.38;6.57;;;12.00;82.10;;;;;;5055471;28;20048;-76
2022/01/02 03:50:11;;;;;;;11.93;5.80;;;12.00;82.10;;;;;;5054785;28;20035;-76
2022/01/02 03:52:37;;;;;;;12.63;5.70;;;12.10;82.20;;;;;;5037770;28;20077;-76
2022/01/02 03:55:04;;;;;;;9.30;5.65;;;12.10;82.20;;;;;;5058553;28;20075;-76
2022/01/02 03:57:29;;;;;;;19.55;6.45;;;12.00;82.10;;;;;;5049120;28;20412;-76
2022/01/02 03:59:55;;;;;;;13.80;5.65;;;12.10;82.20;;;;;;5054937;28;20057;-76
2022/01/02 04:02:20;;;;;;;14.38;5.82;;;12.10;82.20;;;;;;5054572;28;20045;-76
2022/01/02 04:04:46;;;;;;;11.07;4.93;;;12.00;82.10;;;;;;5037126;28;20053;-77
2022/01/02 04:07:12;;;;;;;12.38;5.93;;;12.10;82.20;;;;;;5056364;28;20037;-75
2022/01/02 04:09:37;;;;;;;12.93;5.82;;;12.00;82.20;;;;;;5055502;28;20473;-76
2022/01/02 04:12:03;;;;;;;13.27;5.70;;;12.10;82.20;;;;;;5053894;28;20392;-76
2022/01/02 04:14:29;;;;;;;12.80;5.40;;;12.10;82.20;;;;;;5055413;28;20368;-76
2022/01/02 04:16:55;;;;;;;13.25;5.63;;;12.10;82.20;;;;;;5055023;28;20041;-76
2022/01/02 04:19:20;;;;;;;9.88;5.65;;;12.10;82.20;;;;;;5055143;28;20045;-76
2022/01/02 04:21:46;;;;;;;14.43;5.85;;;12.10;82.20;;;;;;5036803;28;20052;-75
2022/01/02 04:24:12;;;;;;;14.73;6.88;;;12.10;82.30;;;;;;5054746;28;20076;-76
2022/01/02 04:26:38;;;;;;;11.57;4.80;;;12.10;82.30;;;;;;5036528;28;20037;-75
2022/01/02 04:29:03;;;;;;;14.18;5.15;;;12.10;82.30;;;;;;5056198;28;20544;-76
2022/01/02 04:31:29;;;;;;;12.48;5.55;;;12.10;82.30;;;;;;5036217;28;20049;-76
2022/01/02 04:33:55;;;;;;;14.82;5.45;;;12.10;82.20;;;;;;5036268;28;20040;-75
2022/01/02 04:36:21;;;;;;;12.63;5.25;;;12.10;82.20;;;;;;5054572;28;20055;-76
2022/01/02 04:38:46;;;;;;;17.45;5.95;;;12.10;82.20;;;;;;5048027;28;20044;-76
2022/01/02 04:41:12;;;;;;;8.95;4.57;;;12.10;82.20;;;;;;5043933;28;20075;-76
2022/01/02 04:43:38;;;;;;;13.23;4.72;;;12.10;82.30;;;;;;5054394;28;20033;-76
2022/01/02 04:46:05;;;;;;;12.60;5.22;;;12.10;82.20;;;;;;5054206;28;20037;-75
2022/01/02 04:48:31;;;;;;;10.80;5.43;;;12.10;82.20;;;;;;5040021;28;20403;-76
2022/01/02 04:50:57;;;;;;;11.40;5.22;;;12.10;82.20;;;;;;5069848;28;20045;-76
2022/01/02 04:53:22;;;;;;;11.50;4.97;;;12.10;82.20;;;;;;5053870;28;20106;-75
2022/01/02 04:55:49;;;;;;;15.80;5.05;;;12.10;82.20;;;;;;5054266;28;20425;-76
2022/01/02 04:58:15;;;;;;;11.38;4.13;;;12.20;82.20;;;;;;5053927;28;20052;-76
2022/01/02 05:00:41;;;;;;;11.43;4.70;;;12.20;82.20;;;;;;5057956;28;20401;-75
2022/01/02 05:03:06;;;;;;;13.23;5.05;;;12.20;82.20;;;;;;5053504;28;20052;-75
2022/01/02 05:05:32;;;;;;;15.88;5.28;;;12.20;82.20;;;;;;5053913;28;20041;-76
2022/01/02 05:07:58;;;;;;;9.15;3.83;;;12.20;82.20;;;;;;5054192;28;20063;-75
2022/01/02 05:10:23;;;;;;;12.82;4.45;;;12.20;82.20;;;;;;5062578;28;20078;-76
2022/01/02 05:12:49;;;;;;;13.50;4.47;;;12.10;82.20;;;;;;5055337;28;20516;-75
2022/01/02 05:15:15;;;;;;;14.50;4.10;;;12.20;82.20;;;;;;5053692;28;20044;-76
2022/01/02 05:17:40;;;;;;;9.77;3.88;;;12.20;82.20;;;;;;5053788;28;20488;-76
2022/01/02 05:20:07;;;;;;;13.65;4.15;;;12.20;82.20;;;;;;5036493;28;20051;-76
2022/01/02 05:22:32;;;;;;;16.10;4.32;;;12.20;82.20;;;;;;5036279;28;20112;-76
2022/01/02 05:24:58;;;;;;;10.65;4.25;;;12.20;82.20;;;;;;5052757;28;20508;-75
2022/01/02 05:27:24;;;;;;;16.23;4.20;;;12.20;82.20;;;;;;5035441;28;20051;-76
2022/01/02 05:29:49;;;;;;;10.35;3.63;;;12.20;82.20;;;;;;5053426;28;20048;-75
2022/01/02 05:32:15;;;;;;;16.98;5.25;;;12.20;82.20;;;;;;5054680;28;20049;-76
2022/01/02 05:34:40;;;;;;;10.57;4.20;;;12.20;82.20;;;;;;5052807;28;20036;-76
2022/01/02 05:37:06;;;;;;;10.13;4.45;;;12.30;82.20;;;;;;5053243;28;20041;-76
2022/01/02 05:39:32;;;;;;;13.23;4.95;;;12.20;82.20;;;;;;5036134;28;20040;-76
2022/01/02 05:41:57;;;;;;;10.52;4.60;;;12.20;82.20;;;;;;5054649;28;20076;-76
2022/01/02 05:44:23;;;;;;;13.63;5.07;;;12.20;82.20;;;;;;5035222;28;20415;-75
2022/01/02 05:46:48;;;;;;;12.05;4.80;;;12.20;82.30;;;;;;5034603;28;20045;-76
2022/01/02 05:49:15;;;;;;;11.18;4.00;;;12.20;82.30;;;;;;5053558;28;20041;-76
2022/01/02 05:51:40;;;;;;;15.57;4.07;;;12.20;82.70;;;;;;5035031;28;20065;-76
2022/01/02 05:54:07;;;;;;;13.88;4.60;;;12.20;82.30;;;;;;5054399;28;20049;-75
2022/01/02 05:56:33;;;;;;;11.30;4.38;;;12.30;82.40;;;;;;5052887;28;20388;-75
2022/01/02 05:58:59;;;;;;;8.52;3.28;;;12.30;82.40;;;;;;5052982;28;20095;-74
2022/01/02 06:01:25;;;;;;;11.10;3.78;;;12.30;82.40;;;;;;5052680;28;20053;-76
2022/01/02 06:03:51;;;;;;;9.65;3.75;;;12.30;82.40;;;;;;5040729;28;20036;-75
2022/01/02 06:06:16;;;;;;;11.20;3.22;;;12.30;82.50;;;;;;5053398;28;20040;-76
2022/01/02 06:08:42;;;;;;;9.82;3.08;;;12.30;82.50;;;;;;5035096;28;20041;-76
2022/01/02 06:11:08;;;;;;;10.98;3.42;;;12.30;82.40;;;;;;5053582;28;20044;-76
2022/01/02 06:13:34;;;;;;;10.77;3.53;;;12.40;82.50;;;;;;5056511;28;20106;-76
2022/01/02 06:15:59;;;;;;;8.50;3.38;;;12.40;82.40;;;;;;5058237;28;20045;-76
2022/01/02 06:18:25;;;;;;;9.07;3.60;;;12.30;82.40;;;;;;5057107;28;20544;-76
2022/01/02 06:20:51;;;;;;;9.48;3.28;;;12.60;82.60;;;;;;5057096;28;20029;-76
2022/01/02 06:23:17;;;;;;;10.63;3.65;;;12.40;82.50;;;;;;5057007;28;20052;-76
2022/01/02 06:25:44;;;;;;;8.48;3.45;;;12.40;82.50;;;;;;5065655;28;20111;-76
2022/01/02 06:28:10;;;;;;;8.30;3.30;;;12.40;82.60;;;;;;5045443;28;20048;-76
2022/01/02 06:30:35;;;;;;;15.32;3.92;;;12.40;82.60;;;;;;5057205;28;20055;-76
2022/01/02 06:33:01;;;;;;;7.22;3.28;;;12.40;82.70;;;;;;5038714;28;20036;-76
2022/01/02 06:35:29;;;;;;;10.18;3.47;;;12.40;82.70;;;;;;5058296;28;20040;-76
2022/01/02 06:37:55;;;;;;;11.40;3.50;;;12.50;82.80;;;;;;5050122;28;20037;-76
2022/01/02 06:40:23;;;;;;;9.77;3.65;;;12.50;82.80;;;;;;5038957;28;20041;-76
2022/01/02 06:42:49;;;;;;;7.40;3.10;;;12.50;82.80;;;;;;5056722;28;20048;-76
2022/01/02 06:45:15;;;;;;;9.07;3.03;;;12.50;82.70;;;;;;5056576;28;20499;-75
2022/01/02 06:47:42;;;;;;;5.53;3.13;;;12.50;82.70;;;;;;5039266;28;20045;-76
2022/01/02 06:50:08;;;;;;;10.30;2.70;;;12.50;82.70;;;;;;5056839;28;20599;-75
2022/01/02 06:52:34;;;;;;;9.25;3.00;;;12.50;82.60;;;;;;5056680;28;20033;-76
2022/01/02 06:55:00;;;;;;;9.50;3.42;;;12.50;82.60;;;;;;5056115;28;20056;-76
2022/01/02 06:57:25;;;;;;;8.20;3.00;;;12.60;82.60;;;;;;5042411;28;20037;-76
2022/01/02 06:59:51;;;;;;;11.15;3.50;;;12.50;82.50;;;;;;5038794;28;20147;-76
2022/01/02 07:02:17;;;;;;;8.38;3.33;;;12.60;82.60;;;;;;5056096;28;20369;-76
2022/01/02 07:04:43;;;;;;;8.48;2.72;;;12.60;82.60;;;;;;5056195;28;20063;-76
2022/01/02 07:07:09;;;;;;;7.68;3.22;;;12.60;82.50;;;;;;5056755;28;20492;-76
2022/01/02 07:09:36;;;;;;;7.00;3.20;;;12.60;82.50;;;;;;5055815;28;20068;-75
2022/01/02 07:12:03;;;;;;;11.45;3.42;;;12.60;82.50;;;;;;5055369;28;20060;-76
2022/01/02 07:14:30;;;;;;;7.28;3.67;;;12.60;82.40;;;;;;5056062;28;20056;-75
2022/01/02 07:17:00;;;;;;;8.88;3.47;;;12.50;82.30;;;;;;5055751;28;20115;-75
2022/01/02 07:19:26;;;;;;;8.00;3.40;;;12.60;82.30;;;;;;5058733;28;20074;-76
2022/01/02 07:21:52;;;;;;;11.48;4.18;;;12.60;82.20;;;;;;5020625;28;20136;-75
2022/01/02 07:24:19;;;;;;;7.47;3.47;;;12.60;82.20;;;;;;5055633;28;20622;-76
2022/01/02 07:26:45;;;;;;;11.40;2.97;;;12.60;82.10;;;;;;5028055;28;20499;-75
2022/01/02 07:29:11;;;;;;;8.50;3.60;;;12.50;82.00;;;;;;5049099;28;20049;-76
2022/01/02 07:31:37;;;;;;;6.80;4.00;;;12.50;81.90;;;;;;5068077;28;20032;-76
2022/01/02 07:34:04;;;;;;;9.65;3.72;;;12.60;81.80;;;;;;5055441;28;20045;-76
2022/01/02 07:36:30;;;;;;;8.30;4.18;;;12.50;81.70;;;;;;5037919;28;20040;-75
2022/01/02 07:38:57;;;;;;;9.23;3.33;;;12.50;81.60;;;;;;5059004;28;20116;-76
2022/01/02 07:41:23;;;;;;;9.15;4.03;;;12.50;81.50;;;;;;5056546;28;20071;-76
2022/01/02 07:43:48;;;;;;;7.85;3.38;;;12.50;81.50;;;;;;5055647;28;20047;-76
2022/01/02 07:46:14;;;;;;;9.98;3.85;;;12.50;81.50;;;;;;5037837;28;20037;-76
2022/01/02 07:48:40;;;;;;;10.02;4.00;;;12.50;81.40;;;;;;5037439;28;20048;-75
2022/01/02 07:51:05;;;;;;;7.22;3.72;;;12.50;81.40;;;;;;5037265;28;20435;-76
2022/01/02 07:53:31;;;;;;;8.23;3.40;;;12.50;81.40;;;;;;5057454;28;20124;-76
2022/01/02 07:55:57;;;;;;;8.18;3.95;;;12.50;81.30;;;;;;5058760;28;20447;-76
2022/01/02 07:58:23;;;;;;;9.27;3.83;;;12.40;81.30;;;;;;5057793;28;20067;-75
2022/01/02 08:00:50;;;;;;;11.35;4.47;;;12.50;81.30;;;;;;5056726;28;20086;-75
2022/01/02 08:03:16;;;;;;;8.65;4.15;;;12.40;81.20;;;;;;5055391;28;20495;-76
2022/01/02 08:05:42;;;;;;;11.45;5.13;;;12.40;81.20;;;;;;5020796;28;20155;-75
2022/01/02 08:08:10;;;;;;;9.57;4.72;;;12.40;81.20;;;;;;5037100;28;20159;-75
2022/01/02 08:10:38;;;;;;;9.27;4.65;;;12.40;81.20;;;;;;5054131;28;20041;-76
2022/01/02 08:13:04;;;;;;;7.25;3.80;;;12.40;81.10;;;;;;5036956;28;20047;-75
2022/01/02 08:15:30;;;;;;;10.15;4.43;;;12.30;81.10;;;;;;5055438;28;20037;-76
2022/01/02 08:17:55;;;;;;;12.00;4.38;;;12.30;81.10;;;;;;5037231;28;20056;-74
2022/01/02 08:20:21;;;;;;;6.75;4.05;;;12.30;81.10;;;;;;5055042;28;20498;-74
2022/01/02 08:22:47;;;;;;;11.43;3.63;;;12.30;81.10;;;;;;5054214;28;20049;-75
2022/01/02 08:25:13;;;;;;;9.40;4.00;;;12.40;81.10;;;;;;5059905;28;20041;-76
2022/01/02 08:27:39;;;;;;;6.53;3.75;;;12.30;81.10;;;;;;5065757;28;20053;-76
2022/01/02 08:30:05;;;;;;;10.07;4.03;;;12.30;81.10;;;;;;5054214;28;20057;-75
2022/01/02 08:32:31;;;;;;;9.07;4.20;;;12.30;81.10;;;;;;5057542;28;20373;-76
2022/01/02 08:34:57;;;;;;;9.48;4.35;;;12.30;81.10;;;;;;5054050;28;20056;-76
2022/01/02 08:37:22;;;;;;;9.52;3.90;;;12.40;81.40;;;;;;5055620;28;20051;-74
2022/01/02 08:39:48;;;;;;;9.38;3.65;;;12.30;81.10;;;;;;5054522;28;20091;-75
2022/01/02 08:42:14;;;;;;;9.60;3.97;;;12.30;81.10;;;;;;5054949;28;20488;-75
2022/01/02 08:44:43;;;;;;;9.52;3.95;;;12.30;81.10;;;;;;5054467;28;20087;-75
2022/01/02 08:47:10;;;;;;;7.10;3.25;;;12.30;81.10;;;;;;5054203;28;20037;-74
2022/01/02 08:49:36;;;;;;;6.80;3.25;;;12.20;81.10;;;;;;5048357;28;20040;-74
2022/01/02 08:52:02;;;;;;;9.60;3.72;;;12.20;81.10;;;;;;5053900;28;20029;-74
2022/01/02 08:54:28;;;;;;;9.40;4.22;;;12.20;81.10;;;;;;5055391;28;20033;-75
2022/01/02 08:56:53;;;;;;;7.93;3.90;;;12.20;81.20;;;;;;5056394;28;20147;-76
2022/01/02 08:59:24;;;;;;;6.05;3.47;;;12.20;81.20;;;;;;5062335;28;20448;-75
2022/01/02 09:01:50;;;;;;;5.88;3.53;;;12.20;81.30;;;;;;5053451;28;20048;-75
2022/01/02 09:04:16;;;;;;;7.50;3.38;;;12.20;81.30;;;;;;5039380;28;20037;-76
2022/01/02 09:06:42;;;;;;;5.97;3.67;;;12.20;81.30;;;;;;5053598;28;20127;-76
2022/01/02 09:09:08;;;;;;;8.43;3.95;;;12.20;81.30;;;;;;5037152;28;20045;-75
2022/01/02 09:11:34;;;;;;;9.77;3.58;;;12.20;81.40;;;;;;5053966;28;20476;-74
2022/01/02 09:14:02;;;;;;;6.57;4.00;;;12.20;81.40;;;;;;5053184;28;20049;-74
2022/01/02 09:16:28;;;;;;;5.80;3.33;;;12.20;81.40;;;;;;5049569;28;20033;-74
2022/01/02 09:18:54;;;;;;;8.88;4.10;;;12.20;81.40;;;;;;5044734;28;20051;-75
2022/01/02 09:21:19;;;;;;;14.52;4.13;;;12.20;81.30;;;;;;5045088;28;20049;-75
2022/01/02 09:23:45;;;;;;;9.70;4.22;;;12.20;81.30;;;;;;5053134;28;20048;-76
2022/01/02 09:26:11;;;;;;;9.10;3.92;;;12.20;81.30;;;;;;5031055;28;20053;-76
2022/01/02 09:28:37;;;;;;;7.28;3.72;;;12.20;81.30;;;;;;5053909;28;20045;-75
2022/01/02 09:31:02;;;;;;;8.48;4.03;;;12.20;81.30;;;;;;5053453;28;20464;-75
2022/01/02 09:33:28;;;;;;;8.43;4.20;;;12.20;81.30;;;;;;5053287;28;20492;-75
2022/01/02 09:35:54;;;;;;;8.95;4.03;;;12.30;81.30;;;;;;5055978;28;20420;-75
2022/01/02 09:38:19;;;;;;;6.65;3.83;;;12.30;81.20;;;;;;5034686;28;20052;-75
2022/01/02 09:40:46;;;;;;;7.70;3.97;;;12.30;81.20;;;;;;5054359;28;20044;-74
2022/01/02 09:43:11;;;;;;;9.60;3.65;;;12.30;81.20;;;;;;5053180;28;20044;-75
2022/01/02 09:45:38;;;;;;;6.97;3.35;;;12.30;81.30;;;;;;5035616;28;20072;-75
2022/01/02 09:48:05;;;;;;;9.52;3.90;;;12.30;81.60;;;;;;5052462;28;20401;-75
2022/01/02 09:50:32;;;;;;;10.20;5.28;;;12.40;81.30;;;;;;5034655;28;20472;-75
2022/01/02 09:52:58;;;;;;;8.15;4.53;;;12.40;81.30;;;;;;5035018;28;20514;-75
2022/01/02 09:55:24;;;;;;;7.35;4.05;;;12.40;81.40;;;;;;5034169;28;20120;-74
2022/01/02 09:57:53;;;;;;;9.45;4.13;;;12.40;81.30;;;;;;5052970;28;20060;-76
2022/01/02 10:00:21;;;;;;;7.07;3.97;;;12.40;81.10;;;;;;5052234;28;20431;-75
2022/01/02 10:03:04;;;;;;;9.50;4.13;;;12.50;81.10;;;;;;5035639;28;20103;-75
2022/01/02 10:05:51;;;;;;;9.18;4.45;;;12.50;80.80;;;;;;5053844;28;20053;-75
2022/01/02 10:08:26;;;;;;;7.35;4.22;;;12.50;80.70;;;;;;5053488;28;20049;-75
2022/01/02 10:11:07;;;;;;;8.05;4.00;;;12.50;80.80;;;;;;5018866;28;20055;-75
2022/01/02 10:13:49;;;;;;;8.20;4.13;;;12.50;80.70;;;;;;5052578;28;20048;-75
2022/01/02 10:16:34;;;;;;;9.95;4.72;;;12.50;80.60;;;;;;5063690;28;20087;-75
2022/01/02 10:19:01;;;;;;;;;;;12.50;80.50;;;;;;5053148;28;20493;-76
2022/01/02 10:21:36;;;;;;;9.95;4.57;;;12.50;80.40;;;;;;5052972;28;20356;-75
2022/01/02 10:24:13;;;;;;;6.70;3.83;;;12.50;80.70;;;;;;5033075;28;20049;-75
2022/01/02 10:26:39;;;;;;;6.68;4.00;;;12.50;80.60;;;;;;5029416;28;20041;-75
2022/01/02 10:29:14;;;;;;;8.10;4.10;;;12.50;80.50;;;;;;5052618;28;20527;-76
2022/01/02 10:31:40;;;;;;;8.20;4.30;;;12.50;80.50;;;;;;5030297;28;20058;-76
2022/01/02 10:34:07;;;;;;;10.07;4.65;;;12.50;80.40;;;;;;5033469;28;20052;-77
2022/01/02 10:36:40;;;;;;;8.50;4.70;;;12.50;80.40;;;;;;5054071;28;20037;-76
2022/01/02 10:39:11;;;;;;;10.30;4.45;;;12.50;80.30;;;;;;5034608;28;20496;-77
2022/01/02 10:41:49;;;;;;;9.00;4.35;;;12.50;80.20;;;;;;5042735;28;20063;-76
2022/01/02 10:44:33;;;;;;;10.80;5.43;;;12.60;80.10;;;;;;5034543;28;20484;-76
2022/01/02 10:47:09;;;;;;;7.22;4.43;;;12.50;80.00;;;;;;5053910;28;20417;-77
2022/01/02 10:49:50;;;;;;;10.02;4.47;;;12.60;80.00;;;;;;5052473;28;20408;-76
2022/01/02 10:52:27;;;;;;;12.50;4.40;;;12.50;79.70;;;;;;5052599;28;20041;-77
2022/01/02 10:54:53;;;;;;;8.27;4.05;;;12.60;79.70;;;;;;5034458;28;20056;-77
2022/01/02 10:57:19;;;;;;;9.40;4.38;;;12.50;79.50;;;;;;5052866;28;20120;-77
2022/01/02 10:59:46;;;;;;;8.15;4.53;;;12.60;79.50;;;;;;5055414;28;20091;-76
2022/01/02 11:02:14;;;;;;;8.23;4.75;;;12.60;79.40;;;;;;5037495;28;20128;-76
2022/01/02 11:05:04;;;;;;;9.23;4.00;;;12.60;79.30;;;;;;5046788;28;20454;-76
2022/01/02 11:07:55;;;;;;;9.77;4.38;;;12.60;79.10;;;;;;5057733;28;20041;-76
2022/01/02 11:10:23;;;;;;;9.65;4.78;;;12.50;79.00;;;;;;5035442;28;20937;-76
2022/01/02 11:12:51;;;;;;;12.77;4.85;;;12.50;79.00;;;;;;5056155;28;20071;-76
2022/01/02 11:15:22;;;;;;;10.77;4.78;;;12.50;78.90;;;;;;5046368;28;20086;-77
2022/01/02 11:17:48;;;;;;;10.35;5.25;;;12.50;78.80;;;;;;5038477;28;20207;-76
2022/01/02 11:20:34;;;;;;;7.78;4.78;;;12.50;78.70;;;;;;5036043;28;20112;-76
2022/01/02 11:23:00;;;;;;;10.63;4.65;;;12.60;78.50;;;;;;5055008;28;20045;-76
2022/01/02 11:25:46;;;;;;;10.30;4.50;;;12.50;78.60;;;;;;5053697;28;20063;-76
2022/01/02 11:28:47;;;;;;;9.18;4.65;;;12.50;78.50;;;;;;5055828;28;20427;-76
2022/01/02 11:31:31;;;;;;;6.45;4.05;;;12.50;78.40;;;;;;5028049;28;20040;-75
2022/01/02 11:33:58;;;;;;;12.43;4.77;;;12.50;78.30;;;;;;5047865;28;20045;-76
2022/01/02 11:36:32;;;;;;;9.02;4.70;;;12.50;78.50;;;;;;5055397;28;20029;-76
2022/01/02 11:39:06;;;;;;;10.70;4.20;;;12.50;78.30;;;;;;5037899;28;20048;-76
2022/01/02 11:41:45;;;;;;;9.07;3.63;;;12.50;78.30;;;;;;5053183;28;20404;-77
2022/01/02 11:44:18;;;;;;;11.82;4.55;;;12.50;78.20;;;;;;5034092;28;20045;-76
2022/01/02 11:46:54;;;;;;;14.35;4.95;;;12.50;78.20;;;;;;5036178;28;20037;-77
2022/01/02 11:49:40;;;;;;;12.15;3.75;;;12.50;78.10;;;;;;5035746;28;20052;-76
2022/01/02 11:52:09;;;;;;;8.23;2.92;;;12.50;78.00;;;;;;5036851;28;20155;-76
2022/01/02 11:54:43;;;;;;;12.25;3.50;;;12.50;78.00;;;;;;5055279;28;20488;-76
2022/01/02 11:57:15;;;;;;;12.98;3.72;;;12.50;77.80;;;;;;5037142;28;20045;-76
2022/01/02 11:59:44;;;;;;;12.10;3.17;;;12.50;77.80;;;;;;5055490;28;20099;-75
2022/01/02 12:02:13;;;;;;;10.80;3.85;;;12.50;77.70;;;;;;5036501;28;20123;-76
2022/01/02 12:05:02;;;;;;;13.55;4.25;;;12.50;77.60;;;;;;5054925;28;20052;-76
2022/01/02 12:07:37;;;;;;;13.93;4.05;;;12.50;77.30;;;;;;5054914;28;20068;-75
2022/01/02 12:10:21;;;;;;;11.15;2.92;;;12.50;77.40;;;;;;5035830;28;20053;-76
2022/01/02 12:13:18;;;;;;;12.57;3.30;;;12.60;77.30;;;;;;5054334;28;20427;-76
2022/01/02 12:15:44;;;;;;;11.50;3.38;;;12.50;77.10;;;;;;5054586;28;20044;-76
2022/01/02 12:18:33;;;;;;;12.02;3.40;;;12.50;77.20;;;;;;5036656;28;20140;-76
2022/01/02 12:21:04;;;;;;;17.70;3.78;;;12.50;77.00;;;;;;5036791;28;20083;-76
2022/01/02 12:23:36;;;;;;;9.98;3.28;;;12.40;77.00;;;;;;5050330;28;20041;-76
2022/01/02 12:26:08;;;;;;;13.52;4.25;;;12.50;77.20;;;;;;5054120;28;20048;-76
2022/01/02 12:28:42;;;;;;;17.35;3.95;;;12.40;77.00;;;;;;5036256;28;20072;-77
2022/01/02 12:31:09;;;;;;;;;;;12.50;77.00;;;;;;5055861;28;20384;-77
2022/01/02 12:33:36;;;;;;;13.60;3.75;;;12.40;76.80;;;;;;5035986;28;19928;-75
2022/01/02 12:36:21;;;;;;;11.10;3.47;;;12.40;77.20;;;;;;5058617;28;20124;-74
2022/01/02 12:38:59;;;;;;;14.80;3.97;;;12.40;76.90;;;;;;5041966;28;20052;-74
2022/01/02 12:41:27;;;;;;;13.18;3.00;;;12.40;77.00;;;;;;5036029;28;20041;-75
2022/01/02 12:43:54;;;;;;;14.23;3.53;;;12.40;77.00;;;;;;5054524;28;20399;-75
2022/01/02 12:46:51;;;;;;;11.90;3.40;;;12.40;76.90;;;;;;5053754;28;20079;-75
2022/01/02 12:49:40;;;;;;;9.27;3.35;;;12.40;76.80;;;;;;5034869;28;20041;-75
2022/01/02 12:52:07;;;;;;;12.10;3.20;;;12.40;76.80;;;;;;5034701;28;20033;-75
2022/01/02 12:54:35;;;;;;;12.13;2.88;;;12.40;76.90;;;;;;5050972;28;20053;-75